sensor_id;sensor_type;location;lat;lon;timestamp;pressure;altitude;pressure_sealevel;temperature;humidity
59104;BME280;51449;51.676;5.812;2023-02-20T00:01:56;102525.41;;;5.92;84.94
59104;BME280;51449;51.676;5.812;2023-02-20T00:04:18;102525.75;;;5.95;84.75
59104;BME280;51449;51.676;5.812;2023-02-20T00:06:40;102526.31;;;5.97;84.77
59104;BME280;51449;51.676;5.812;2023-02-20T00:09:03;102532.31;;;5.99;84.49
59104;BME280;51449;51.676;5.812;2023-02-20T00:11:25;102528.53;;;6.00;84.57
59104;BME280;51449;51.676;5.812;2023-02-20T00:13:47;102528.81;;;6.04;84.75
59104;BME280;51449;51.676;5.812;2023-02-20T00:16:09;102527.47;;;6.07;84.33
59104;BME280;51449;51.676;5.812;2023-02-20T00:18:31;102525.28;;;6.09;84.58
59104;BME280;51449;51.676;5.812;2023-02-20T00:20:53;102525.63;;;6.12;84.54
59104;BME280;51449;51.676;5.812;2023-02-20T00:23:14;102521.53;;;6.15;84.37
59104;BME280;51449;51.676;5.812;2023-02-20T00:25:36;102518.25;;;6.18;83.84
59104;BME280;51449;51.676;5.812;2023-02-20T00:27:58;102507.31;;;6.18;83.91
59104;BME280;51449;51.676;5.812;2023-02-20T00:30:22;102496.94;;;6.20;84.04
59104;BME280;51449;51.676;5.812;2023-02-20T00:32:49;102505.72;;;6.22;84.00
59104;BME280;51449;51.676;5.812;2023-02-20T00:35:16;102495.56;;;6.22;84.20
59104;BME280;51449;51.676;5.812;2023-02-20T00:37:39;102501.88;;;6.23;84.43
59104;BME280;51449;51.676;5.812;2023-02-20T00:40:01;102499.13;;;6.23;83.43
59104;BME280;51449;51.676;5.812;2023-02-20T00:42:22;102486.00;;;6.25;84.07
59104;BME280;51449;51.676;5.812;2023-02-20T00:44:44;102484.34;;;6.24;83.43
59104;BME280;51449;51.676;5.812;2023-02-20T00:47:06;102463.56;;;6.23;84.08
59104;BME280;51449;51.676;5.812;2023-02-20T00:49:28;102457.50;;;6.21;83.70
59104;BME280;51449;51.676;5.812;2023-02-20T00:52:02;102444.94;;;6.20;83.79
59104;BME280;51449;51.676;5.812;2023-02-20T00:54:24;102438.63;;;6.19;83.74
59104;BME280;51449;51.676;5.812;2023-02-20T00:56:46;102438.34;;;6.21;83.57
59104;BME280;51449;51.676;5.812;2023-02-20T00:59:07;102458.09;;;6.23;83.91
59104;BME280;51449;51.676;5.812;2023-02-20T01:01:29;102454.81;;;6.26;83.65
59104;BME280;51449;51.676;5.812;2023-02-20T01:03:50;102463.03;;;6.26;83.61
59104;BME280;51449;51.676;5.812;2023-02-20T01:06:12;102462.22;;;6.31;83.61
59104;BME280;51449;51.676;5.812;2023-02-20T01:08:34;102450.50;;;6.35;82.99
59104;BME280;51449;51.676;5.812;2023-02-20T01:10:56;102462.81;;;6.38;83.87
59104;BME280;51449;51.676;5.812;2023-02-20T01:13:18;102460.34;;;6.36;83.55
59104;BME280;51449;51.676;5.812;2023-02-20T01:15:40;102456.28;;;6.39;83.52
59104;BME280;51449;51.676;5.812;2023-02-20T01:18:02;102447.75;;;6.35;83.30
59104;BME280;51449;51.676;5.812;2023-02-20T01:20:26;102443.91;;;6.36;83.41
59104;BME280;51449;51.676;5.812;2023-02-20T01:22:48;102449.38;;;6.36;82.99
59104;BME280;51449;51.676;5.812;2023-02-20T01:25:10;102444.44;;;6.33;83.24
59104;BME280;51449;51.676;5.812;2023-02-20T01:27:32;102444.44;;;6.33;82.88
59104;BME280;51449;51.676;5.812;2023-02-20T01:29:53;102438.97;;;6.33;82.93
59104;BME280;51449;51.676;5.812;2023-02-20T01:32:15;102436.53;;;6.32;83.18
59104;BME280;51449;51.676;5.812;2023-02-20T01:34:37;102416.50;;;6.31;83.14
59104;BME280;51449;51.676;5.812;2023-02-20T01:37:00;102410.75;;;6.28;82.98
59104;BME280;51449;51.676;5.812;2023-02-20T01:39:27;102406.34;;;6.27;83.14
59104;BME280;51449;51.676;5.812;2023-02-20T01:41:55;102402.00;;;6.26;83.26
59104;BME280;51449;51.676;5.812;2023-02-20T01:44:23;102398.97;;;6.22;83.13
59104;BME280;51449;51.676;5.812;2023-02-20T01:46:50;102391.00;;;6.20;83.22
59104;BME280;51449;51.676;5.812;2023-02-20T01:49:18;102391.84;;;6.21;83.37
59104;BME280;51449;51.676;5.812;2023-02-20T01:51:47;102374.84;;;6.19;83.46
59104;BME280;51449;51.676;5.812;2023-02-20T01:54:17;102359.53;;;6.18;83.15
59104;BME280;51449;51.676;5.812;2023-02-20T01:56:43;102362.81;;;6.15;83.87
59104;BME280;51449;51.676;5.812;2023-02-20T01:59:07;102354.28;;;6.11;83.44
59104;BME280;51449;51.676;5.812;2023-02-20T02:01:31;102337.31;;;6.09;83.34
59104;BME280;51449;51.676;5.812;2023-02-20T02:03:58;102347.44;;;6.09;83.26
59104;BME280;51449;51.676;5.812;2023-02-20T02:06:24;102335.94;;;6.07;83.84
59104;BME280;51449;51.676;5.812;2023-02-20T02:08:46;102348.22;;;6.04;83.63
59104;BME280;51449;51.676;5.812;2023-02-20T02:11:13;102345.78;;;6.03;83.74
59104;BME280;51449;51.676;5.812;2023-02-20T02:13:38;102346.84;;;6.02;83.39
59104;BME280;51449;51.676;5.812;2023-02-20T02:25:30;102330.66;;;5.95;84.73
59104;BME280;51449;51.676;5.812;2023-02-20T02:28:55;102323.88;;;5.97;84.52
59104;BME280;51449;51.676;5.812;2023-02-20T02:40:09;102331.22;;;5.97;84.71
59104;BME280;51449;51.676;5.812;2023-02-20T02:43:00;102338.66;;;6.02;84.94
59104;BME280;51449;51.676;5.812;2023-02-20T02:45:47;102334.84;;;6.03;84.71
59104;BME280;51449;51.676;5.812;2023-02-20T02:48:20;102335.66;;;6.03;84.89
59104;BME280;51449;51.676;5.812;2023-02-20T02:51:00;102322.81;;;6.09;85.03
59104;BME280;51449;51.676;5.812;2023-02-20T02:53:30;102321.75;;;6.10;85.20
59104;BME280;51449;51.676;5.812;2023-02-20T02:55:51;102329.13;;;6.14;85.38
59104;BME280;51449;51.676;5.812;2023-02-20T02:58:14;102324.50;;;6.20;85.36
59104;BME280;51449;51.676;5.812;2023-02-20T03:00:42;102316.88;;;6.22;85.59
59104;BME280;51449;51.676;5.812;2023-02-20T03:06:14;102316.31;;;6.25;85.54
59104;BME280;51449;51.676;5.812;2023-02-20T03:08:51;102304.84;;;6.28;85.55
59104;BME280;51449;51.676;5.812;2023-02-20T03:11:19;102296.91;;;6.32;85.67
59104;BME280;51449;51.676;5.812;2023-02-20T03:13:52;102300.19;;;6.34;85.35
59104;BME280;51449;51.676;5.812;2023-02-20T03:17:42;102295.56;;;6.39;85.50
59104;BME280;51449;51.676;5.812;2023-02-20T03:19:54;102298.59;;;6.43;86.02
59104;BME280;51449;51.676;5.812;2023-02-20T03:22:24;102297.53;;;6.49;85.90
59104;BME280;51449;51.676;5.812;2023-02-20T03:24:54;102283.28;;;6.52;86.39
59104;BME280;51449;51.676;5.812;2023-02-20T03:27:32;102284.09;;;6.58;85.47
59104;BME280;51449;51.676;5.812;2023-02-20T03:30:06;102292.06;;;6.59;85.86
59104;BME280;51449;51.676;5.812;2023-02-20T03:32:32;102289.31;;;6.64;86.25
59104;BME280;51449;51.676;5.812;2023-02-20T03:35:15;102279.47;;;6.63;85.93
59104;BME280;51449;51.676;5.812;2023-02-20T03:38:01;102294.53;;;6.66;85.77
59104;BME280;51449;51.676;5.812;2023-02-20T03:40:48;102294.25;;;6.68;85.92
59104;BME280;51449;51.676;5.812;2023-02-20T03:43:33;102292.88;;;6.70;85.63
59104;BME280;51449;51.676;5.812;2023-02-20T03:46:01;102280.84;;;6.71;86.02
59104;BME280;51449;51.676;5.812;2023-02-20T03:48:55;102289.88;;;6.72;85.67
59104;BME280;51449;51.676;5.812;2023-02-20T03:51:23;102292.06;;;6.75;85.74
59104;BME280;51449;51.676;5.812;2023-02-20T03:54:13;102297.28;;;6.76;85.49
59104;BME280;51449;51.676;5.812;2023-02-20T03:56:42;102297.84;;;6.78;85.61
59104;BME280;51449;51.676;5.812;2023-02-20T03:59:18;102291.25;;;6.79;85.60
59104;BME280;51449;51.676;5.812;2023-02-20T04:01:51;102288.28;;;6.86;85.69
59104;BME280;51449;51.676;5.812;2023-02-20T04:04:22;102297.31;;;6.86;85.64
59104;BME280;51449;51.676;5.812;2023-02-20T04:06:52;102286.34;;;6.86;85.22
59104;BME280;51449;51.676;5.812;2023-02-20T04:09:20;102290.72;;;6.88;85.89
59104;BME280;51449;51.676;5.812;2023-02-20T04:11:51;102283.91;;;6.90;85.90
59104;BME280;51449;51.676;5.812;2023-02-20T04:14:20;102290.72;;;6.88;86.07
59104;BME280;51449;51.676;5.812;2023-02-20T04:16:49;102289.38;;;6.90;86.26
59104;BME280;51449;51.676;5.812;2023-02-20T04:19:16;102281.97;;;6.91;86.39
59104;BME280;51449;51.676;5.812;2023-02-20T04:21:50;102285.28;;;6.93;86.51
59104;BME280;51449;51.676;5.812;2023-02-20T04:24:22;102290.19;;;6.96;86.45
59104;BME280;51449;51.676;5.812;2023-02-20T04:26:49;102280.59;;;6.98;86.37
59104;BME280;51449;51.676;5.812;2023-02-20T04:29:12;102280.34;;;7.00;86.71
59104;BME280;51449;51.676;5.812;2023-02-20T04:31:35;102282.53;;;7.03;86.52
59104;BME280;51449;51.676;5.812;2023-02-20T04:33:57;102278.69;;;7.04;86.88
59104;BME280;51449;51.676;5.812;2023-02-20T04:36:20;102277.31;;;7.06;86.70
59104;BME280;51449;51.676;5.812;2023-02-20T04:38:43;102277.03;;;7.08;86.41
59104;BME280;51449;51.676;5.812;2023-02-20T04:41:08;102283.59;;;7.07;86.81
59104;BME280;51449;51.676;5.812;2023-02-20T04:43:30;102287.75;;;7.10;86.49
59104;BME280;51449;51.676;5.812;2023-02-20T04:45:52;102281.41;;;7.14;86.91
59104;BME280;51449;51.676;5.812;2023-02-20T04:48:13;102285.53;;;7.22;86.29
59104;BME280;51449;51.676;5.812;2023-02-20T04:50:36;102283.63;;;7.22;86.53
59104;BME280;51449;51.676;5.812;2023-02-20T04:53:00;102290.19;;;7.21;86.38
59104;BME280;51449;51.676;5.812;2023-02-20T04:55:22;102293.47;;;7.23;85.99
59104;BME280;51449;51.676;5.812;2023-02-20T04:57:47;102285.81;;;7.25;86.19
59104;BME280;51449;51.676;5.812;2023-02-20T05:00:10;102286.63;;;7.26;86.26
59104;BME280;51449;51.676;5.812;2023-02-20T05:02:33;102281.69;;;7.28;86.13
59104;BME280;51449;51.676;5.812;2023-02-20T05:04:55;102294.28;;;7.29;85.97
59104;BME280;51449;51.676;5.812;2023-02-20T05:07:17;102284.97;;;7.30;85.84
59104;BME280;51449;51.676;5.812;2023-02-20T05:09:42;102283.63;;;7.27;86.12
59104;BME280;51449;51.676;5.812;2023-02-20T05:12:04;102285.81;;;7.25;85.81
59104;BME280;51449;51.676;5.812;2023-02-20T05:14:26;102289.09;;;7.27;85.95
59104;BME280;51449;51.676;5.812;2023-02-20T05:16:48;102282.78;;;7.27;86.05
59104;BME280;51449;51.676;5.812;2023-02-20T05:19:12;102286.59;;;7.31;85.69
59104;BME280;51449;51.676;5.812;2023-02-20T05:21:35;102291.00;;;7.32;85.81
59104;BME280;51449;51.676;5.812;2023-02-20T05:24:15;102291.00;;;7.32;85.60
59104;BME280;51449;51.676;5.812;2023-02-20T05:26:36;102286.91;;;7.29;85.87
59104;BME280;51449;51.676;5.812;2023-02-20T05:28:58;102281.41;;;7.29;86.01
59104;BME280;51449;51.676;5.812;2023-02-20T05:31:20;102276.19;;;7.33;85.91
59104;BME280;51449;51.676;5.812;2023-02-20T05:33:43;102268.53;;;7.35;85.73
59104;BME280;51449;51.676;5.812;2023-02-20T05:36:05;102269.34;;;7.36;85.38
59104;BME280;51449;51.676;5.812;2023-02-20T05:38:27;102273.75;;;7.37;85.52
59104;BME280;51449;51.676;5.812;2023-02-20T05:40:49;102278.13;;;7.38;85.61
59104;BME280;51449;51.676;5.812;2023-02-20T05:43:10;102283.59;;;7.43;85.27
59104;BME280;51449;51.676;5.812;2023-02-20T05:45:32;102284.13;;;7.45;85.18
59104;BME280;51449;51.676;5.812;2023-02-20T05:47:53;102275.91;;;7.45;84.91
59104;BME280;51449;51.676;5.812;2023-02-20T05:50:15;102286.63;;;7.46;85.15
59104;BME280;51449;51.676;5.812;2023-02-20T05:52:37;102269.59;;;7.49;85.15
59104;BME280;51449;51.676;5.812;2023-02-20T05:54:58;102273.16;;;7.50;84.96
59104;BME280;51449;51.676;5.812;2023-02-20T05:57:20;102281.66;;;7.54;84.75
59104;BME280;51449;51.676;5.812;2023-02-20T05:59:42;102270.69;;;7.54;84.75
59104;BME280;51449;51.676;5.812;2023-02-20T06:02:04;102281.38;;;7.55;84.70
59104;BME280;51449;51.676;5.812;2023-02-20T06:04:26;102278.63;;;7.55;84.55
59104;BME280;51449;51.676;5.812;2023-02-20T06:06:49;102274.50;;;7.58;84.67
59104;BME280;51449;51.676;5.812;2023-02-20T06:09:13;102273.97;;;7.56;84.67
59104;BME280;51449;51.676;5.812;2023-02-20T06:11:38;102274.81;;;7.56;84.66
59104;BME280;51449;51.676;5.812;2023-02-20T06:14:01;102267.09;;;7.58;84.19
59104;BME280;51449;51.676;5.812;2023-02-20T06:16:25;102265.47;;;7.57;84.48
59104;BME280;51449;51.676;5.812;2023-02-20T06:18:49;102270.38;;;7.60;84.32
59104;BME280;51449;51.676;5.812;2023-02-20T06:21:11;102276.97;;;7.64;83.63
59104;BME280;51449;51.676;5.812;2023-02-20T06:23:34;102276.16;;;7.64;83.51
59104;BME280;51449;51.676;5.812;2023-02-20T06:25:57;102266.53;;;7.66;84.03
59104;BME280;51449;51.676;5.812;2023-02-20T06:28:19;102267.91;;;7.69;83.45
59104;BME280;51449;51.676;5.812;2023-02-20T06:30:42;102272.28;;;7.70;83.40
59104;BME280;51449;51.676;5.812;2023-02-20T06:33:03;102267.59;;;7.70;83.39
59104;BME280;51449;51.676;5.812;2023-02-20T06:35:25;102262.13;;;7.70;83.21
59104;BME280;51449;51.676;5.812;2023-02-20T06:37:47;102263.25;;;7.69;83.39
59104;BME280;51449;51.676;5.812;2023-02-20T06:40:09;102261.31;;;7.65;83.76
59104;BME280;51449;51.676;5.812;2023-02-20T06:42:31;102264.38;;;7.63;83.52
59104;BME280;51449;51.676;5.812;2023-02-20T06:44:53;102276.16;;;7.64;83.30
59104;BME280;51449;51.676;5.812;2023-02-20T06:47:14;102272.81;;;7.72;83.56
59104;BME280;51449;51.676;5.812;2023-02-20T06:49:37;102270.06;;;7.77;82.81
59104;BME280;51449;51.676;5.812;2023-02-20T06:52:00;102272.25;;;7.80;83.07
59104;BME280;51449;51.676;5.812;2023-02-20T06:54:24;102269.81;;;7.79;82.59
59104;BME280;51449;51.676;5.812;2023-02-20T06:56:46;102272.78;;;7.82;82.61
59104;BME280;51449;51.676;5.812;2023-02-20T06:59:08;102271.97;;;7.82;82.94
59104;BME280;51449;51.676;5.812;2023-02-20T07:01:36;102273.63;;;7.83;82.43
59104;BME280;51449;51.676;5.812;2023-02-20T07:04:00;102270.88;;;7.83;82.88
59104;BME280;51449;51.676;5.812;2023-02-20T07:06:24;102270.88;;;7.83;82.29
59104;BME280;51449;51.676;5.812;2023-02-20T07:08:46;102282.94;;;7.82;82.40
59104;BME280;51449;51.676;5.812;2023-02-20T07:11:07;102273.34;;;7.84;82.37
59104;BME280;51449;51.676;5.812;2023-02-20T07:13:30;102274.16;;;7.85;82.42
59104;BME280;51449;51.676;5.812;2023-02-20T07:15:51;102278.56;;;7.86;82.12
59104;BME280;51449;51.676;5.812;2023-02-20T07:18:13;102281.56;;;7.89;81.73
59104;BME280;51449;51.676;5.812;2023-02-20T07:20:37;102290.59;;;7.95;81.91
59104;BME280;51449;51.676;5.812;2023-02-20T07:22:59;102283.44;;;7.99;82.00
59104;BME280;51449;51.676;5.812;2023-02-20T07:25:20;102281.25;;;8.01;81.46
59104;BME280;51449;51.676;5.812;2023-02-20T07:27:42;102285.34;;;8.04;81.83
59104;BME280;51449;51.676;5.812;2023-02-20T07:30:04;102268.06;;;8.03;81.39
59104;BME280;51449;51.676;5.812;2023-02-20T07:32:26;102276.53;;;8.07;81.13
59104;BME280;51449;51.676;5.812;2023-02-20T07:34:47;102276.00;;;8.10;81.00
59104;BME280;51449;51.676;5.812;2023-02-20T07:37:24;102275.44;;;8.13;81.00
59104;BME280;51449;51.676;5.812;2023-02-20T07:39:46;102283.91;;;8.17;81.03
59104;BME280;51449;51.676;5.812;2023-02-20T07:42:08;102283.91;;;8.17;80.82
59104;BME280;51449;51.676;5.812;2023-02-20T07:44:43;102284.44;;;8.19;80.73
59104;BME280;51449;51.676;5.812;2023-02-20T07:47:07;102278.69;;;8.20;80.46
59104;BME280;51449;51.676;5.812;2023-02-20T07:49:28;102274.00;;;8.21;80.38
59104;BME280;51449;51.676;5.812;2023-02-20T07:51:51;102266.34;;;8.18;80.56
59104;BME280;51449;51.676;5.812;2023-02-20T07:54:12;102276.75;;;8.21;80.60
59104;BME280;51449;51.676;5.812;2023-02-20T07:56:34;102274.84;;;8.21;80.20
59104;BME280;51449;51.676;5.812;2023-02-20T07:58:56;102277.53;;;8.26;80.42
59104;BME280;51449;51.676;5.812;2023-02-20T08:01:21;102291.81;;;8.28;80.07
59104;BME280;51449;51.676;5.812;2023-02-20T08:03:42;102281.38;;;8.30;80.06
59104;BME280;51449;51.676;5.812;2023-02-20T08:06:04;102267.94;;;8.29;80.34
59104;BME280;51449;51.676;5.812;2023-02-20T08:08:26;102266.84;;;8.30;80.32
59104;BME280;51449;51.676;5.812;2023-02-20T08:10:48;102262.69;;;8.32;80.33
59104;BME280;51449;51.676;5.812;2023-02-20T08:13:20;102266.81;;;8.35;80.54
59104;BME280;51449;51.676;5.812;2023-02-20T08:15:42;102253.34;;;8.33;80.15
59104;BME280;51449;51.676;5.812;2023-02-20T08:18:05;102260.19;;;8.36;79.94
59104;BME280;51449;51.676;5.812;2023-02-20T08:20:43;102261.56;;;8.39;80.06
59104;BME280;51449;51.676;5.812;2023-02-20T08:23:05;102263.78;;;8.42;80.20
59104;BME280;51449;51.676;5.812;2023-02-20T08:25:34;102253.06;;;8.40;79.98
59104;BME280;51449;51.676;5.812;2023-02-20T08:27:55;102262.13;;;8.41;80.34
59104;BME280;51449;51.676;5.812;2023-02-20T08:30:25;102253.03;;;8.45;80.26
59104;BME280;51449;51.676;5.812;2023-02-20T08:32:52;102258.50;;;8.50;80.01
59104;BME280;51449;51.676;5.812;2023-02-20T08:35:15;102258.25;;;8.47;79.79
59104;BME280;51449;51.676;5.812;2023-02-20T08:37:37;102264.03;;;8.45;79.75
59104;BME280;51449;51.676;5.812;2023-02-20T08:39:59;102274.75;;;8.47;79.97
59104;BME280;51449;51.676;5.812;2023-02-20T08:42:21;102265.66;;;8.51;79.99
59104;BME280;51449;51.676;5.812;2023-02-20T08:44:42;102278.00;;;8.54;80.00
59104;BME280;51449;51.676;5.812;2023-02-20T08:47:04;102263.97;;;8.55;80.08
59104;BME280;51449;51.676;5.812;2023-02-20T08:49:27;102277.97;;;8.59;79.75
59104;BME280;51449;51.676;5.812;2023-02-20T08:51:52;102271.66;;;8.59;79.66
59104;BME280;51449;51.676;5.812;2023-02-20T08:54:15;102270.53;;;8.60;79.45
59104;BME280;51449;51.676;5.812;2023-02-20T08:56:37;102273.53;;;8.63;79.82
59104;BME280;51449;51.676;5.812;2023-02-20T08:58:59;102264.16;;;8.69;79.79
59104;BME280;51449;51.676;5.812;2023-02-20T09:01:21;102263.28;;;8.74;79.86
59104;BME280;51449;51.676;5.812;2023-02-20T09:03:43;102266.28;;;8.77;79.84
59104;BME280;51449;51.676;5.812;2023-02-20T09:06:05;102271.78;;;8.77;79.69
59104;BME280;51449;51.676;5.812;2023-02-20T09:08:27;102264.34;;;8.83;79.84
59104;BME280;51449;51.676;5.812;2023-02-20T09:10:48;102265.97;;;8.84;79.45
59104;BME280;51449;51.676;5.812;2023-02-20T09:13:10;102265.69;;;8.86;79.42
59104;BME280;51449;51.676;5.812;2023-02-20T09:15:32;102259.06;;;8.87;79.26
59104;BME280;51449;51.676;5.812;2023-02-20T09:17:59;102261.81;;;8.87;79.24
59104;BME280;51449;51.676;5.812;2023-02-20T09:20:21;102263.47;;;8.88;79.22
59104;BME280;51449;51.676;5.812;2023-02-20T09:22:43;102260.97;;;8.91;79.58
59104;BME280;51449;51.676;5.812;2023-02-20T09:25:05;102261.50;;;8.93;79.47
59104;BME280;51449;51.676;5.812;2023-02-20T09:27:30;102257.34;;;8.96;79.00
59104;BME280;51449;51.676;5.812;2023-02-20T09:29:51;102247.75;;;8.93;79.13
59104;BME280;51449;51.676;5.812;2023-02-20T09:32:13;102261.22;;;8.95;79.14
59104;BME280;51449;51.676;5.812;2023-02-20T09:34:35;102253.25;;;8.93;79.22
59104;BME280;51449;51.676;5.812;2023-02-20T09:36:57;102252.97;;;8.95;79.44
59104;BME280;51449;51.676;5.812;2023-02-20T09:39:19;102260.66;;;8.98;79.31
59104;BME280;51449;51.676;5.812;2023-02-20T09:44:55;102277.09;;;9.03;79.21
59104;BME280;51449;51.676;5.812;2023-02-20T09:47:46;102264.97;;;9.04;79.33
59104;BME280;51449;51.676;5.812;2023-02-20T09:50:53;102271.31;;;9.05;79.39
59104;BME280;51449;51.676;5.812;2023-02-20T09:56:03;102249.06;;;9.01;79.42
59104;BME280;51449;51.676;5.812;2023-02-20T09:58:40;102246.03;;;9.03;79.37
59104;BME280;51449;51.676;5.812;2023-02-20T10:01:07;102232.28;;;9.03;79.41
59104;BME280;51449;51.676;5.812;2023-02-20T10:06:38;102241.34;;;9.03;79.63
59104;BME280;51449;51.676;5.812;2023-02-20T10:09:00;102249.00;;;9.06;79.55
59104;BME280;51449;51.676;5.812;2023-02-20T10:11:47;102246.53;;;9.10;79.48
59104;BME280;51449;51.676;5.812;2023-02-20T10:14:37;102235.75;;;9.13;79.58
59104;BME280;51449;51.676;5.812;2023-02-20T10:17:24;102247.88;;;9.12;79.31
59104;BME280;51449;51.676;5.812;2023-02-20T10:23:01;102248.69;;;9.13;79.20
59104;BME280;51449;51.676;5.812;2023-02-20T10:25:34;102255.59;;;9.10;79.00
59104;BME280;51449;51.676;5.812;2023-02-20T10:28:08;102255.81;;;9.14;79.37
59104;BME280;51449;51.676;5.812;2023-02-20T10:30:40;102257.16;;;9.16;79.59
59104;BME280;51449;51.676;5.812;2023-02-20T10:35:34;102244.53;;;9.15;79.67
59104;BME280;51449;51.676;5.812;2023-02-20T10:38:07;102250.03;;;9.15;79.42
59104;BME280;51449;51.676;5.812;2023-02-20T10:40:44;102255.81;;;9.14;79.39
59104;BME280;51449;51.676;5.812;2023-02-20T10:43:24;102251.66;;;9.16;79.64
59104;BME280;51449;51.676;5.812;2023-02-20T10:49:16;102269.81;;;9.17;79.73
59104;BME280;51449;51.676;5.812;2023-02-20T10:51:48;102257.69;;;9.18;79.68
59104;BME280;51449;51.676;5.812;2023-02-20T10:54:23;102263.47;;;9.22;79.65
59104;BME280;51449;51.676;5.812;2023-02-20T10:57:32;102262.28;;;9.28;79.82
59104;BME280;51449;51.676;5.812;2023-02-20T11:00:12;102231.81;;;9.25;79.89
59104;BME280;51449;51.676;5.812;2023-02-20T11:02:57;102242.28;;;9.23;79.62
59104;BME280;51449;51.676;5.812;2023-02-20T11:05:27;102245.03;;;9.23;79.92
59104;BME280;51449;51.676;5.812;2023-02-20T11:07:55;102240.59;;;9.27;79.79
59104;BME280;51449;51.676;5.812;2023-02-20T11:10:17;102248.53;;;9.28;79.80
59104;BME280;51449;51.676;5.812;2023-02-20T11:12:50;102253.44;;;9.31;79.87
59104;BME280;51449;51.676;5.812;2023-02-20T11:15:28;102241.34;;;9.32;79.93
59104;BME280;51449;51.676;5.812;2023-02-20T11:17:54;102246.84;;;9.32;80.00
59104;BME280;51449;51.676;5.812;2023-02-20T11:23:02;102258.94;;;9.31;79.94
59104;BME280;51449;51.676;5.812;2023-02-20T11:25:31;102239.69;;;9.31;80.04
59104;BME280;51449;51.676;5.812;2023-02-20T11:27:57;102220.44;;;9.31;80.15
59104;BME280;51449;51.676;5.812;2023-02-20T11:30:35;102237.53;;;9.28;80.24
59104;BME280;51449;51.676;5.812;2023-02-20T11:33:05;102246.59;;;9.29;80.14
59104;BME280;51449;51.676;5.812;2023-02-20T11:35:38;102241.34;;;9.32;80.61
59104;BME280;51449;51.676;5.812;2023-02-20T11:40:35;102214.94;;;9.31;80.81
59104;BME280;51449;51.676;5.812;2023-02-20T11:43:18;102226.19;;;9.35;80.77
59104;BME280;51449;51.676;5.812;2023-02-20T11:45:44;102224.84;;;9.32;81.01
59104;BME280;51449;51.676;5.812;2023-02-20T11:48:11;102227.00;;;9.35;81.00
59104;BME280;51449;51.676;5.812;2023-02-20T11:50:43;102227.78;;;9.41;80.95
59104;BME280;51449;51.676;5.812;2023-02-20T11:55:42;102214.34;;;9.39;81.23
59104;BME280;51449;51.676;5.812;2023-02-20T11:58:23;102220.13;;;9.38;81.59
59104;BME280;51449;51.676;5.812;2023-02-20T12:00:47;102229.19;;;9.38;81.64
59104;BME280;51449;51.676;5.812;2023-02-20T12:03:13;102195.88;;;9.40;81.75
59104;BME280;51449;51.676;5.812;2023-02-20T12:05:44;102181.00;;;9.41;82.06
59104;BME280;51449;51.676;5.812;2023-02-20T12:11:15;102189.56;;;9.39;82.06
59104;BME280;51449;51.676;5.812;2023-02-20T12:13:45;102204.34;;;9.43;82.04
59104;BME280;51449;51.676;5.812;2023-02-20T12:19:49;102173.53;;;9.47;82.15
59104;BME280;51449;51.676;5.812;2023-02-20T12:22:33;102151.75;;;9.50;82.10
59104;BME280;51449;51.676;5.812;2023-02-20T12:28:20;102167.03;;;9.61;81.75
59104;BME280;51449;51.676;5.812;2023-02-20T12:36:27;102139.66;;;9.70;81.32
59104;BME280;51449;51.676;5.812;2023-02-20T12:38:57;102148.44;;;9.72;81.34
59104;BME280;51449;51.676;5.812;2023-02-20T12:42:00;102145.16;;;9.70;81.52
59104;BME280;51449;51.676;5.812;2023-02-20T12:44:51;102140.13;;;9.77;81.51
59104;BME280;51449;51.676;5.812;2023-02-20T12:47:32;102131.28;;;9.80;81.31
59104;BME280;51449;51.676;5.812;2023-02-20T12:50:15;102131.78;;;9.82;81.18
59104;BME280;51449;51.676;5.812;2023-02-20T12:53:29;102153.31;;;9.80;80.92
59104;BME280;51449;51.676;5.812;2023-02-20T12:56:18;102175.00;;;9.82;80.79
59104;BME280;51449;51.676;5.812;2023-02-20T12:59:15;102187.69;;;9.83;80.85
59104;BME280;51449;51.676;5.812;2023-02-20T13:02:01;102154.13;;;9.81;80.65
59104;BME280;51449;51.676;5.812;2023-02-20T13:05:03;102140.03;;;9.82;80.92
59104;BME280;51449;51.676;5.812;2023-02-20T13:07:34;102167.00;;;9.85;80.53
59104;BME280;51449;51.676;5.812;2023-02-20T13:10:07;102161.72;;;9.89;80.52
59104;BME280;51449;51.676;5.812;2023-02-20T13:12:36;102161.41;;;9.91;80.40
59104;BME280;51449;51.676;5.812;2023-02-20T13:18:03;102161.88;;;9.98;80.13
59104;BME280;51449;51.676;5.812;2023-02-20T13:20:44;102164.63;;;9.98;79.73
59104;BME280;51449;51.676;5.812;2023-02-20T13:25:40;102131.06;;;9.96;79.68
59104;BME280;51449;51.676;5.812;2023-02-20T13:30:41;102149.97;;;10.02;79.75
59104;BME280;51449;51.676;5.812;2023-02-20T13:33:33;102141.72;;;10.02;79.65
59104;BME280;51449;51.676;5.812;2023-02-20T13:35:57;102129.84;;;10.02;79.63
59104;BME280;51449;51.676;5.812;2023-02-20T13:38:21;102132.59;;;10.02;79.44
59104;BME280;51449;51.676;5.812;2023-02-20T13:45:47;102137.53;;;10.05;79.01
59104;BME280;51449;51.676;5.812;2023-02-20T13:53:35;102124.94;;;9.99;79.04
59104;BME280;51449;51.676;5.812;2023-02-20T13:55:57;102114.19;;;10.02;79.35
59104;BME280;51449;51.676;5.812;2023-02-20T13:58:18;102103.97;;;10.03;79.08
59104;BME280;51449;51.676;5.812;2023-02-20T14:00:51;102114.47;;;10.01;79.03
59104;BME280;51449;51.676;5.812;2023-02-20T14:03:27;102102.41;;;9.97;79.06
59104;BME280;51449;51.676;5.812;2023-02-20T14:06:16;102091.91;;;9.99;79.33
59104;BME280;51449;51.676;5.812;2023-02-20T14:08:44;102094.66;;;9.99;79.49
59104;BME280;51449;51.676;5.812;2023-02-20T14:11:10;102091.72;;;9.95;79.36
59104;BME280;51449;51.676;5.812;2023-02-20T14:13:35;102086.50;;;9.94;79.24
59104;BME280;51449;51.676;5.812;2023-02-20T14:16:02;102077.41;;;9.93;79.17
59104;BME280;51449;51.676;5.812;2023-02-20T14:18:31;102066.94;;;9.95;79.18
59104;BME280;51449;51.676;5.812;2023-02-20T14:21:08;102069.06;;;9.98;79.37
59104;BME280;51449;51.676;5.812;2023-02-20T14:23:39;102066.31;;;9.98;79.22
59104;BME280;51449;51.676;5.812;2023-02-20T14:26:04;102066.84;;;10.00;78.98